Time;durP1;ratioP1;P1;durP2;ratioP2;P2;SDS_P1;SDS_P2;PMS_P1;PMS_P2;Temp;Humidity;BMP_temperature;BMP_pressure;BME280_temperature;BME280_humidity;BME280_pressure;Samples;Min_cycle;Max_cycle;Signal;HPM_P1;HPM_P2
2022/06/02 00:01:24;;;;;;;;;;;;;;;;;;4995129;28;846;-62
2022/06/02 00:03:55;;;;;;;;;;;;;;;;;;5012809;28;807;-62
2022/06/02 00:06:23;;;;;;;;;;;;;;;;;;5012049;28;948;-62
2022/06/02 00:08:48;;;;;;;;;;;;;;;;;;5012679;28;870;-62
2022/06/02 00:11:32;;;;;;;;;;;;;;;;;;5012284;28;953;-62
2022/06/02 00:14:06;;;;;;;;;;;;;;;;;;5012167;28;1963;-62
2022/06/02 00:16:34;;;;;;;;;;;;;;;;;;5011921;28;771;-62
2022/06/02 00:19:05;;;;;;;;;;;;;;;;;;5011237;28;1055;-62
2022/06/02 00:21:33;;;;;;;;;;;;;;;;;;5011065;28;933;-62
2022/06/02 00:24:07;;;;;;;;;;;;;;;;;;5011010;28;927;-63
2022/06/02 00:26:39;;;;;;;;;;;;;;;;;;5011485;28;921;-63
2022/06/02 00:29:09;;;;;;;;;;;;;;;;;;5011517;28;841;-63
2022/06/02 00:31:43;;;;;;;;;;;;;;;;;;5011698;28;959;-63
2022/06/02 00:34:17;;;;;;;;;;;;;;;;;;5011178;28;1898;-63
2022/06/02 00:37:01;;;;;;;;;;;;;;;;;;5011720;28;820;-63
2022/06/02 00:39:29;;;;;;;;;;;;;;;;;;5011082;28;854;-63
2022/06/02 00:41:54;;;;;;;;;;;;;;;;;;5011345;28;999;-63
2022/06/02 00:44:38;;;;;;;;;;;;;;;;;;5010700;28;837;-63
2022/06/02 00:47:26;;;;;;;;;;;;;;;;;;5011283;28;924;-64
2022/06/02 00:50:05;;;;;;;;;;;;;;;;;;5011408;28;837;-63
2022/06/02 00:52:33;;;;;;;;;;;;;;;;;;5011194;28;896;-63
2022/06/02 00:58:05;;;;;;;;;;;;;;;;;;5011182;28;679;-71
2022/06/02 01:00:51;;;;;;;;;;;;;;;;;;5010188;28;974;-72
2022/06/02 01:03:19;;;;;;;;;;;;;;;;;;5010080;28;1335;-63
2022/06/02 01:05:56;;;;;;;;;;;;;;;;;;4993368;28;1204;-63
2022/06/02 01:08:40;;;;;;;;;;;;;;;;;;5010503;28;932;-63
2022/06/02 01:11:05;;;;;;;;;;;;;;;;;;5010902;28;933;-63
2022/06/02 01:13:40;;;;;;;;;;;;;;;;;;5011390;28;1914;-63
2022/06/02 01:16:21;;;;;;;;;;;;;;;;;;5011121;28;1172;-63
2022/06/02 01:19:10;;;;;;;;;;;;;;;;;;5011574;28;881;-63
2022/06/02 01:21:46;;;;;;;;;;;;;;;;;;5011123;28;892;-63
2022/06/02 01:24:17;;;;;;;;;;;;;;;;;;5010648;28;1227;-63
2022/06/02 01:27:01;;;;;;;;;;;;;;;;;;5011478;28;877;-63
2022/06/02 01:29:26;;;;;;;;;;;;;;;;;;5010793;28;916;-63
2022/06/02 01:31:58;;;;;;;;;;;;;;;;;;5011340;28;826;-63
2022/06/02 01:34:29;;;;;;;;;;;;;;;;;;4992844;28;1918;-63
2022/06/02 01:37:09;;;;;;;;;;;;;;;;;;5011338;28;779;-63
2022/06/02 01:39:44;;;;;;;;;;;;;;;;;;5011635;28;1015;-63
2022/06/02 01:42:27;;;;;;;;;;;;;;;;;;5011241;28;802;-63
2022/06/02 01:45:04;;;;;;;;;;;;;;;;;;5011406;28;987;-63
2022/06/02 01:47:40;;;;;;;;;;;;;;;;;;5010650;28;1028;-63
2022/06/02 01:50:13;;;;;;;;;;;;;;;;;;5011198;28;838;-63
2022/06/02 01:52:38;;;;;;;;;;;;;;;;;;4995086;28;877;-63
2022/06/02 01:55:15;;;;;;;;;;;;;;;;;;5014715;28;1974;-63
2022/06/02 01:57:43;;;;;;;;;;;;;;;;;;4996818;28;1228;-63
2022/06/02 02:00:10;;;;;;;;;;;;;;;;;;5014175;28;1004;-63
2022/06/02 02:02:39;;;;;;;;;;;;;;;;;;5013899;28;1201;-63
2022/06/02 02:05:14;;;;;;;;;;;;;;;;;;5012609;28;1154;-63
2022/06/02 02:07:39;;;;;;;;;;;;;;;;;;4995535;28;1066;-72
2022/06/02 02:10:12;;;;;;;;;;;;;;;;;;5013248;28;1126;-71
2022/06/02 02:12:47;;;;;;;;;;;;;;;;;;4996798;28;910;-71
2022/06/02 02:15:17;;;;;;;;;;;;;;;;;;5013983;28;1963;-63
2022/06/02 02:17:42;;;;;;;;;;;;;;;;;;5014000;28;968;-63
2022/06/02 02:20:14;;;;;;;;;;;;;;;;;;5014150;28;771;-64
2022/06/02 02:22:39;;;;;;;;;;;;;;;;;;5014699;28;980;-63
2022/06/02 02:25:10;;;;;;;;;;;;;;;;;;5014081;28;922;-63
2022/06/02 02:28:03;;;;;;;;;;;;;;;;;;5013755;28;944;-63
2022/06/02 02:30:47;;;;;;;;;;;;;;;;;;5013701;28;937;-63
2022/06/02 02:33:31;;;;;;;;;;;;;;;;;;5014115;28;1898;-63
2022/06/02 02:35:56;;;;;;;;;;;;;;;;;;5014102;28;900;-63
2022/06/02 02:38:30;;;;;;;;;;;;;;;;;;5013835;28;786;-63
2022/06/02 02:40:58;;;;;;;;;;;;;;;;;;5014081;28;908;-63
2022/06/02 02:43:36;;;;;;;;;;;;;;;;;;5013264;28;2068;-63
2022/06/02 02:46:14;;;;;;;;;;;;;;;;;;5013999;28;877;-63
2022/06/02 02:48:51;;;;;;;;;;;;;;;;;;5013566;28;1241;-63
2022/06/02 02:51:31;;;;;;;;;;;;;;;;;;5012444;28;810;-63
2022/06/02 02:54:11;;;;;;;;;;;;;;;;;;5013570;28;1914;-63
2022/06/02 02:56:58;;;;;;;;;;;;;;;;;;4995635;28;1592;-63
2022/06/02 02:59:35;;;;;;;;;;;;;;;;;;5013066;28;786;-63
2022/06/02 03:02:19;;;;;;;;;;;;;;;;;;5013777;28;817;-63
2022/06/02 03:04:50;;;;;;;;;;;;;;;;;;5013460;28;916;-63
2022/06/02 03:07:16;;;;;;;;;;;;;;;;;;5013404;28;964;-63
2022/06/02 03:09:44;;;;;;;;;;;;;;;;;;5013343;28;909;-63
2022/06/02 03:12:17;;;;;;;;;;;;;;;;;;5013570;28;995;-63
2022/06/02 03:14:58;;;;;;;;;;;;;;;;;;5012948;28;1954;-63
2022/06/02 03:17:42;;;;;;;;;;;;;;;;;;5013092;28;881;-63
2022/06/02 03:20:24;;;;;;;;;;;;;;;;;;5013632;28;779;-63
2022/06/02 03:22:55;;;;;;;;;;;;;;;;;;5013686;28;815;-63
2022/06/02 03:25:33;;;;;;;;;;;;;;;;;;5013076;28;1000;-63
2022/06/02 03:27:58;;;;;;;;;;;;;;;;;;5013228;28;905;-64
2022/06/02 03:30:25;;;;;;;;;;;;;;;;;;5013363;28;896;-63
2022/06/02 03:33:04;;;;;;;;;;;;;;;;;;5013586;28;1208;-63
2022/06/02 03:35:36;;;;;;;;;;;;;;;;;;5012403;28;1898;-63
2022/06/02 03:38:04;;;;;;;;;;;;;;;;;;5012811;28;820;-63
2022/06/02 03:40:32;;;;;;;;;;;;;;;;;;5012170;28;917;-63
2022/06/02 03:43:00;;;;;;;;;;;;;;;;;;5012442;28;775;-63
2022/06/02 03:45:44;;;;;;;;;;;;;;;;;;4994127;28;1508;-63
2022/06/02 03:48:22;;;;;;;;;;;;;;;;;;5012160;28;1172;-63
2022/06/02 03:51:05;;;;;;;;;;;;;;;;;;5012597;28;1050;-63
2022/06/02 03:53:37;;;;;;;;;;;;;;;;;;4994046;28;1969;-64
2022/06/02 03:56:13;;;;;;;;;;;;;;;;;;5012375;28;798;-63
2022/06/02 03:58:50;;;;;;;;;;;;;;;;;;5011951;28;1082;-63
2022/06/02 04:01:23;;;;;;;;;;;;;;;;;;4994253;28;1231;-63
2022/06/02 04:03:55;;;;;;;;;;;;;;;;;;5012031;28;1008;-63
2022/06/02 04:06:23;;;;;;;;;;;;;;;;;;4993686;28;977;-63
2022/06/02 04:09:02;;;;;;;;;;;;;;;;;;5012023;28;858;-63
2022/06/02 04:14:37;;;;;;;;;;;;;;;;;;5011125;28;1949;-63
2022/06/02 04:17:11;;;;;;;;;;;;;;;;;;5012260;28;995;-63
2022/06/02 04:22:43;;;;;;;;;;;;;;;;;;5012225;28;624;-63
2022/06/02 04:25:25;;;;;;;;;;;;;;;;;;5011876;28;900;-63
2022/06/02 04:28:09;;;;;;;;;;;;;;;;;;5011539;28;888;-63
2022/06/02 04:30:37;;;;;;;;;;;;;;;;;;5011672;28;1074;-63
2022/06/02 04:33:08;;;;;;;;;;;;;;;;;;5011899;28;927;-63
2022/06/02 04:35:39;;;;;;;;;;;;;;;;;;5011364;28;1896;-63
2022/06/02 04:38:14;;;;;;;;;;;;;;;;;;4993851;28;1217;-63
2022/06/02 04:40:57;;;;;;;;;;;;;;;;;;5011788;28;968;-63
2022/06/02 04:43:28;;;;;;;;;;;;;;;;;;5011078;28;1121;-63
2022/06/02 04:46:12;;;;;;;;;;;;;;;;;;5011009;28;899;-63
2022/06/02 04:48:37;;;;;;;;;;;;;;;;;;5012262;28;1127;-63
2022/06/02 04:51:11;;;;;;;;;;;;;;;;;;5012163;28;810;-63
2022/06/02 04:53:45;;;;;;;;;;;;;;;;;;5012145;28;1922;-63
2022/06/02 04:56:20;;;;;;;;;;;;;;;;;;5011701;28;881;-63
2022/06/02 04:58:45;;;;;;;;;;;;;;;;;;5011769;28;1018;-63
2022/06/02 05:01:20;;;;;;;;;;;;;;;;;;5011831;28;917;-63
2022/06/02 05:04:01;;;;;;;;;;;;;;;;;;5012254;28;908;-63
2022/06/02 05:06:35;;;;;;;;;;;;;;;;;;5011819;28;849;-63
2022/06/02 05:09:20;;;;;;;;;;;;;;;;;;4994418;28;956;-64
2022/06/02 05:12:04;;;;;;;;;;;;;;;;;;5011463;28;802;-63
2022/06/02 05:14:36;;;;;;;;;;;;;;;;;;4993622;28;1908;-63
2022/06/02 05:17:28;;;;;;;;;;;;;;;;;;5011397;28;926;-63
2022/06/02 05:20:02;;;;;;;;;;;;;;;;;;5011517;28;657;-63
2022/06/02 05:22:42;;;;;;;;;;;;;;;;;;5011027;28;902;-64
2022/06/02 05:25:13;;;;;;;;;;;;;;;;;;5011486;28;889;-63
2022/06/02 05:27:41;;;;;;;;;;;;;;;;;;5015071;28;877;-62
2022/06/02 05:30:13;;;;;;;;;;;;;;;;;;5015327;28;956;-63
2022/06/02 05:32:55;;;;;;;;;;;;;;;;;;5015237;28;897;-62
2022/06/02 05:35:23;;;;;;;;;;;;;;;;;;5014970;28;1960;-62
2022/06/02 05:38:07;;;;;;;;;;;;;;;;;;5014772;28;1071;-62
2022/06/02 05:40:42;;;;;;;;;;;;;;;;;;5014651;28;913;-63
2022/06/02 05:43:19;;;;;;;;;;;;;;;;;;5015287;28;932;-63
2022/06/02 05:46:23;;;;;;;;;;;;;;;;;;5015238;28;1008;-62
2022/06/02 05:48:49;;;;;;;;;;;;;;;;;;4953786;28;1236;-63
2022/06/02 05:51:20;;;;;;;;;;;;;;;;;;4953864;28;849;-62
2022/06/02 05:53:56;;;;;;;;;;;;;;;;;;4984175;28;1942;-62
2022/06/02 05:56:50;;;;;;;;;;;;;;;;;;5015377;28;893;-62
2022/06/02 05:59:37;;;;;;;;;;;;;;;;;;5001698;28;1229;-62
2022/06/02 06:02:13;;;;;;;;;;;;;;;;;;5014548;28;899;-62
2022/06/02 06:04:50;;;;;;;;;;;;;;;;;;5015348;28;1099;-62
2022/06/02 06:07:16;;;;;;;;;;;;;;;;;;5014492;28;861;-62
2022/06/02 06:09:59;;;;;;;;;;;;;;;;;;5014757;28;830;-62
2022/06/02 06:12:37;;;;;;;;;;;;;;;;;;5015066;28;1697;-62
2022/06/02 06:15:06;;;;;;;;;;;;;;;;;;5014012;28;1906;-62
2022/06/02 06:17:31;;;;;;;;;;;;;;;;;;5014378;28;845;-62
2022/06/02 06:20:02;;;;;;;;;;;;;;;;;;5014248;28;1245;-62
2022/06/02 06:22:35;;;;;;;;;;;;;;;;;;5014191;28;821;-62
2022/06/02 06:25:03;;;;;;;;;;;;;;;;;;5013483;28;923;-62
2022/06/02 06:27:29;;;;;;;;;;;;;;;;;;5013823;28;816;-62
2022/06/02 06:30:03;;;;;;;;;;;;;;;;;;5013441;28;833;-62
2022/06/02 06:32:31;;;;;;;;;;;;;;;;;;5013730;28;794;-62
2022/06/02 06:34:57;;;;;;;;;;;;;;;;;;5013856;28;1890;-62
2022/06/02 06:37:23;;;;;;;;;;;;;;;;;;5013063;28;841;-63
2022/06/02 06:40:03;;;;;;;;;;;;;;;;;;5013674;28;1031;-62
2022/06/02 06:42:31;;;;;;;;;;;;;;;;;;5013348;28;885;-62
2022/06/02 06:45:11;;;;;;;;;;;;;;;;;;5014011;28;980;-63
2022/06/02 06:47:42;;;;;;;;;;;;;;;;;;4980839;28;2131;-62
2022/06/02 06:50:07;;;;;;;;;;;;;;;;;;5013569;28;1067;-62
2022/06/02 06:52:39;;;;;;;;;;;;;;;;;;5013380;28;922;-62
2022/06/02 06:55:14;;;;;;;;;;;;;;;;;;4995510;28;1906;-62
2022/06/02 06:57:45;;;;;;;;;;;;;;;;;;5013505;28;925;-62
2022/06/02 07:00:22;;;;;;;;;;;;;;;;;;5013387;28;893;-63
2022/06/02 07:02:47;;;;;;;;;;;;;;;;;;5013268;28;873;-63
2022/06/02 07:05:17;;;;;;;;;;;;;;;;;;5012101;28;873;-62
2022/06/02 07:08:03;;;;;;;;;;;;;;;;;;5012974;28;1129;-62
2022/06/02 07:10:28;;;;;;;;;;;;;;;;;;5012635;28;864;-62
2022/06/02 07:13:01;;;;;;;;;;;;;;;;;;5012496;28;845;-62
2022/06/02 07:15:44;;;;;;;;;;;;;;;;;;5012636;28;1964;-62
2022/06/02 07:18:18;;;;;;;;;;;;;;;;;;5013125;28;912;-62
2022/06/02 07:20:44;;;;;;;;;;;;;;;;;;5012984;28;992;-62
2022/06/02 07:23:13;;;;;;;;;;;;;;;;;;5013045;28;995;-62
2022/06/02 07:25:57;;;;;;;;;;;;;;;;;;4995466;28;934;-62
2022/06/02 07:28:30;;;;;;;;;;;;;;;;;;5028324;28;1337;-63
2022/06/02 07:31:01;;;;;;;;;;;;;;;;;;5013159;28;774;-62
2022/06/02 07:33:26;;;;;;;;;;;;;;;;;;5012128;28;1945;-63
2022/06/02 07:35:51;;;;;;;;;;;;;;;;;;5012939;28;830;-62
2022/06/02 07:38:35;;;;;;;;;;;;;;;;;;5012037;28;790;-62
2022/06/02 07:41:03;;;;;;;;;;;;;;;;;;5027589;28;1295;-62
2022/06/02 07:43:47;;;;;;;;;;;;;;;;;;5012272;28;818;-62
2022/06/02 07:46:24;;;;;;;;;;;;;;;;;;5012375;28;909;-62
2022/06/02 07:49:10;;;;;;;;;;;;;;;;;;5011741;28;1137;-62
2022/06/02 07:51:41;;;;;;;;;;;;;;;;;;5011961;28;817;-63
2022/06/02 07:54:09;;;;;;;;;;;;;;;;;;5012147;28;1914;-63
2022/06/02 07:56:37;;;;;;;;;;;;;;;;;;5011847;28;1067;-63
2022/06/02 07:59:19;;;;;;;;;;;;;;;;;;5012055;28;924;-63
2022/06/02 08:01:44;;;;;;;;;;;;;;;;;;5012082;28;845;-63
2022/06/02 08:04:18;;;;;;;;;;;;;;;;;;5010438;28;1319;-63
2022/06/02 08:07:04;;;;;;;;;;;;;;;;;;5012532;28;1193;-63
2022/06/02 08:09:38;;;;;;;;;;;;;;;;;;5011905;28;1268;-63
2022/06/02 08:12:20;;;;;;;;;;;;;;;;;;5108971;27;1342;-63
2022/06/02 08:14:55;;;;;;;;;;;;;;;;;;5109827;28;860;-62
2022/06/02 08:17:29;;;;;;;;;;;;;;;;;;5108963;28;887;-62
2022/06/02 08:20:01;;;;;;;;;;;;;;;;;;5109376;28;879;-63
2022/06/02 08:22:44;;;;;;;;;;;;;;;;;;5108530;28;832;-63
2022/06/02 08:25:11;;;;;;;;;;;;;;;;;;5108057;28;812;-63
2022/06/02 08:27:39;;;;;;;;;;;;;;;;;;5109197;28;868;-63
2022/06/02 08:30:10;;;;;;;;;;;;;;;;;;5107585;28;1945;-63
2022/06/02 08:32:50;;;;;;;;;;;;;;;;;;5107313;28;1417;-63
2022/06/02 08:35:19;;;;;;;;;;;;;;;;;;5108399;28;900;-63
2022/06/02 08:37:59;;;;;;;;;;;;;;;;;;5108423;28;884;-63
2022/06/02 08:40:24;;;;;;;;;;;;;;;;;;5108000;28;880;-63
2022/06/02 08:43:08;;;;;;;;;;;;;;;;;;5108442;28;844;-63
2022/06/02 08:45:33;;;;;;;;;;;;;;;;;;5108581;28;880;-63
2022/06/02 08:47:59;;;;;;;;;;;;;;;;;;5108325;28;979;-63
2022/06/02 08:50:30;;;;;;;;;;;;;;;;;;5107842;28;1969;-63
2022/06/02 08:53:08;;;;;;;;;;;;;;;;;;5108031;28;900;-62
2022/06/02 08:55:53;;;;;;;;;;;;;;;;;;5107866;28;860;-63
2022/06/02 08:58:33;;;;;;;;;;;;;;;;;;5107622;28;919;-62
2022/06/02 09:01:00;;;;;;;;;;;;;;;;;;5108339;28;876;-62
2022/06/02 09:03:38;;;;;;;;;;;;;;;;;;5107477;28;901;-62
2022/06/02 09:06:06;;;;;;;;;;;;;;;;;;5108170;28;876;-62
2022/06/02 09:08:57;;;;;;;;;;;;;;;;;;5107349;28;907;-62
2022/06/02 09:11:22;;;;;;;;;;;;;;;;;;5098418;28;1922;-62
2022/06/02 09:14:06;;;;;;;;;;;;;;;;;;5108061;28;852;-62
2022/06/02 09:16:35;;;;;;;;;;;;;;;;;;5107981;28;927;-62
2022/06/02 09:19:17;;;;;;;;;;;;;;;;;;5108156;28;853;-62
2022/06/02 09:22:00;;;;;;;;;;;;;;;;;;5104911;28;900;-62
2022/06/02 09:24:27;;;;;;;;;;;;;;;;;;5093791;28;1006;-62
2022/06/02 09:26:58;;;;;;;;;;;;;;;;;;5093805;28;927;-62
2022/06/02 09:29:24;;;;;;;;;;;;;;;;;;5092166;28;1407;-63
2022/06/02 09:31:55;;;;;;;;;;;;;;;;;;5093529;28;1914;-62
2022/06/02 09:34:29;;;;;;;;;;;;;;;;;;5093510;28;987;-62
2022/06/02 09:37:01;;;;;;;;;;;;;;;;;;5092559;28;873;-62
2022/06/02 09:39:45;;;;;;;;;;;;;;;;;;5093332;28;876;-62
2022/06/02 09:42:25;;;;;;;;;;;;;;;;;;5094253;28;1120;-62
2022/06/02 09:44:50;;;;;;;;;;;;;;;;;;5092583;28;1590;-62
2022/06/02 09:47:24;;;;;;;;;;;;;;;;;;5093094;28;1111;-62
2022/06/02 09:49:53;;;;;;;;;;;;;;;;;;5094135;28;1897;-62
2022/06/02 09:52:30;;;;;;;;;;;;;;;;;;5093332;28;860;-63
2022/06/02 09:54:58;;;;;;;;;;;;;;;;;;5094117;28;999;-62
2022/06/02 10:00:38;;;;;;;;;;;;;;;;;;5069725;28;1320;-62
2022/06/02 10:03:22;;;;;;;;;;;;;;;;;;5093875;28;955;-62
2022/06/02 10:06:03;;;;;;;;;;;;;;;;;;5093917;28;903;-63
2022/06/02 10:08:47;;;;;;;;;;;;;;;;;;5093906;28;915;-63
2022/06/02 10:11:20;;;;;;;;;;;;;;;;;;5093203;28;1910;-63
2022/06/02 10:13:51;;;;;;;;;;;;;;;;;;5093904;28;742;-63
2022/06/02 10:16:23;;;;;;;;;;;;;;;;;;5091067;28;1203;-63
2022/06/02 10:19:00;;;;;;;;;;;;;;;;;;5093358;28;833;-63
2022/06/02 10:21:31;;;;;;;;;;;;;;;;;;5092623;28;895;-63
2022/06/02 10:24:15;;;;;;;;;;;;;;;;;;5092623;28;874;-63
2022/06/02 10:27:03;;;;;;;;;;;;;;;;;;5092824;28;880;-63
2022/06/02 10:29:43;;;;;;;;;;;;;;;;;;5092418;28;793;-63
2022/06/02 10:32:18;;;;;;;;;;;;;;;;;;5092796;28;1897;-63
2022/06/02 10:35:02;;;;;;;;;;;;;;;;;;5090685;28;1612;-63
2022/06/02 10:37:33;;;;;;;;;;;;;;;;;;5092236;28;915;-63
2022/06/02 10:40:13;;;;;;;;;;;;;;;;;;5092931;28;841;-63
2022/06/02 10:42:49;;;;;;;;;;;;;;;;;;5092601;28;908;-63
2022/06/02 10:45:17;;;;;;;;;;;;;;;;;;5107674;28;1525;-63
2022/06/02 10:47:52;;;;;;;;;;;;;;;;;;5092661;28;890;-63
2022/06/02 10:50:36;;;;;;;;;;;;;;;;;;5092384;28;1969;-63
2022/06/02 10:53:04;;;;;;;;;;;;;;;;;;5092377;28;860;-63
2022/06/02 10:55:48;;;;;;;;;;;;;;;;;;5090586;28;876;-63
2022/06/02 10:58:32;;;;;;;;;;;;;;;;;;5091359;28;837;-63
2022/06/02 11:01:03;;;;;;;;;;;;;;;;;;5092432;28;817;-63
2022/06/02 11:03:47;;;;;;;;;;;;;;;;;;5091542;28;895;-63
2022/06/02 11:06:30;;;;;;;;;;;;;;;;;;5092069;28;817;-63
2022/06/02 11:08:58;;;;;;;;;;;;;;;;;;5092606;28;1061;-63
2022/06/02 11:11:27;;;;;;;;;;;;;;;;;;5089599;28;2185;-63
2022/06/02 11:14:04;;;;;;;;;;;;;;;;;;5092041;28;947;-63
2022/06/02 11:16:32;;;;;;;;;;;;;;;;;;5091346;28;955;-63
2022/06/02 11:19:16;;;;;;;;;;;;;;;;;;5091611;28;782;-63
2022/06/02 11:21:44;;;;;;;;;;;;;;;;;;5090003;28;1300;-63
2022/06/02 11:24:18;;;;;;;;;;;;;;;;;;5092395;28;896;-62
2022/06/02 11:26:46;;;;;;;;;;;;;;;;;;5092182;28;891;-62
2022/06/02 11:29:29;;;;;;;;;;;;;;;;;;5091980;28;908;-62
2022/06/02 11:32:23;;;;;;;;;;;;;;;;;;5091831;28;1905;-62
2022/06/02 11:35:07;;;;;;;;;;;;;;;;;;5086763;28;1270;-63
2022/06/02 11:37:33;;;;;;;;;;;;;;;;;;5091672;28;982;-62
2022/06/02 11:39:58;;;;;;;;;;;;;;;;;;5092596;28;883;-62
2022/06/02 11:42:46;;;;;;;;;;;;;;;;;;5092413;28;860;-62
2022/06/02 11:45:11;;;;;;;;;;;;;;;;;;5091824;28;2584;-62
2022/06/02 11:47:46;;;;;;;;;;;;;;;;;;5090766;28;1521;-62
2022/06/02 11:50:27;;;;;;;;;;;;;;;;;;5091121;28;1926;-62
2022/06/02 11:53:12;;;;;;;;;;;;;;;;;;5091204;28;864;-62
2022/06/02 11:55:56;;;;;;;;;;;;;;;;;;5090712;28;1206;-62
2022/06/02 11:58:24;;;;;;;;;;;;;;;;;;5090097;28;859;-62
2022/06/02 12:00:55;;;;;;;;;;;;;;;;;;5091159;28;888;-62
2022/06/02 12:03:32;;;;;;;;;;;;;;;;;;5089425;28;1405;-62
2022/06/02 12:06:13;;;;;;;;;;;;;;;;;;5091183;28;875;-62
2022/06/02 12:08:52;;;;;;;;;;;;;;;;;;5091466;28;872;-62
2022/06/02 12:11:21;;;;;;;;;;;;;;;;;;5090969;28;1898;-62
2022/06/02 12:14:02;;;;;;;;;;;;;;;;;;5091749;28;955;-62
2022/06/02 12:16:40;;;;;;;;;;;;;;;;;;5091144;28;860;-63
2022/06/02 12:19:08;;;;;;;;;;;;;;;;;;5091273;28;923;-63
2022/06/02 12:21:52;;;;;;;;;;;;;;;;;;5090961;28;884;-62
2022/06/02 12:24:36;;;;;;;;;;;;;;;;;;5090779;28;924;-63
2022/06/02 12:27:04;;;;;;;;;;;;;;;;;;5091985;28;858;-62
2022/06/02 12:29:38;;;;;;;;;;;;;;;;;;5091717;28;908;-62
2022/06/02 12:32:04;;;;;;;;;;;;;;;;;;5091746;28;1917;-62
2022/06/02 12:34:32;;;;;;;;;;;;;;;;;;5092083;28;1000;-63
2022/06/02 12:36:57;;;;;;;;;;;;;;;;;;5094182;28;852;-63
2022/06/02 12:39:41;;;;;;;;;;;;;;;;;;5095132;28;1052;-63
2022/06/02 12:42:18;;;;;;;;;;;;;;;;;;5090762;28;1210;-63
2022/06/02 12:45:02;;;;;;;;;;;;;;;;;;5091268;28;899;-63
2022/06/02 12:47:28;;;;;;;;;;;;;;;;;;5090987;28;840;-63
2022/06/02 12:50:16;;;;;;;;;;;;;;;;;;5091319;28;1964;-63
2022/06/02 12:53:00;;;;;;;;;;;;;;;;;;5090616;28;864;-63
2022/06/02 12:55:31;;;;;;;;;;;;;;;;;;5091096;28;833;-63
2022/06/02 12:58:14;;;;;;;;;;;;;;;;;;5093076;28;959;-62
2022/06/02 13:00:42;;;;;;;;;;;;;;;;;;5096624;28;1014;-62
2022/06/02 13:03:11;;;;;;;;;;;;;;;;;;5094512;28;1222;-62
2022/06/02 13:06:00;;;;;;;;;;;;;;;;;;5094126;28;1119;-63
2022/06/02 13:08:32;;;;;;;;;;;;;;;;;;5094902;28;872;-63
2022/06/02 13:11:03;;;;;;;;;;;;;;;;;;5094172;28;1981;-63
2022/06/02 13:13:48;;;;;;;;;;;;;;;;;;5094271;28;916;-63
2022/06/02 13:16:28;;;;;;;;;;;;;;;;;;5093106;28;1492;-62
2022/06/02 13:18:56;;;;;;;;;;;;;;;;;;5094454;28;914;-62
2022/06/02 13:21:37;;;;;;;;;;;;;;;;;;5094947;28;817;-62
2022/06/02 13:24:11;;;;;;;;;;;;;;;;;;5093976;28;884;-63
2022/06/02 13:26:51;;;;;;;;;;;;;;;;;;5092738;28;1288;-62
2022/06/02 13:29:25;;;;;;;;;;;;;;;;;;5092145;28;1214;-62
2022/06/02 13:32:13;;;;;;;;;;;;;;;;;;5094264;28;1974;-63
2022/06/02 13:34:57;;;;;;;;;;;;;;;;;;5094227;28;904;-63
2022/06/02 13:37:34;;;;;;;;;;;;;;;;;;5093517;28;991;-63
2022/06/02 13:40:18;;;;;;;;;;;;;;;;;;5093468;28;983;-63
2022/06/02 13:42:52;;;;;;;;;;;;;;;;;;5092327;28;1365;-63
2022/06/02 13:45:26;;;;;;;;;;;;;;;;;;5093541;28;896;-63
2022/06/02 13:48:07;;;;;;;;;;;;;;;;;;5091593;28;1449;-63
2022/06/02 13:50:32;;;;;;;;;;;;;;;;;;5093516;28;1886;-63
2022/06/02 13:53:16;;;;;;;;;;;;;;;;;;5093608;28;1028;-62
2022/06/02 13:58:44;;;;;;;;;;;;;;;;;;5093126;28;786;-63
2022/06/02 14:01:27;;;;;;;;;;;;;;;;;;5093662;28;888;-63
2022/06/02 14:04:11;;;;;;;;;;;;;;;;;;5093465;28;901;-63
2022/06/02 14:06:44;;;;;;;;;;;;;;;;;;5091186;28;1041;-63
2022/06/02 14:09:28;;;;;;;;;;;;;;;;;;5125883;27;852;-63
2022/06/02 14:12:02;;;;;;;;;;;;;;;;;;5093010;28;1902;-62
2022/06/02 14:14:33;;;;;;;;;;;;;;;;;;5093238;28;936;-63
2022/06/02 14:16:58;;;;;;;;;;;;;;;;;;5093048;28;1007;-63
2022/06/02 14:19:37;;;;;;;;;;;;;;;;;;5092956;28;1002;-63
2022/06/02 14:22:02;;;;;;;;;;;;;;;;;;5093535;28;801;-63
2022/06/02 14:24:30;;;;;;;;;;;;;;;;;;5092974;28;848;-63
2022/06/02 14:27:15;;;;;;;;;;;;;;;;;;5091708;28;1327;-63
2022/06/02 14:29:59;;;;;;;;;;;;;;;;;;5093407;28;911;-70
2022/06/02 14:32:24;;;;;;;;;;;;;;;;;;5093247;28;927;-69
2022/06/02 14:35:08;;;;;;;;;;;;;;;;;;5093562;28;903;-70
2022/06/02 14:37:33;;;;;;;;;;;;;;;;;;5092660;28;1083;-70
2022/06/02 14:40:05;;;;;;;;;;;;;;;;;;5092772;28;892;-70
2022/06/02 14:45:23;;;;;;;;;;;;;;;;;;5092540;28;767;-70
2022/06/02 14:48:07;;;;;;;;;;;;;;;;;;5092857;28;880;-71
2022/06/02 14:50:35;;;;;;;;;;;;;;;;;;5092279;28;1902;-70
2022/06/02 14:53:20;;;;;;;;;;;;;;;;;;5092445;28;931;-70
2022/06/02 14:56:05;;;;;;;;;;;;;;;;;;5088743;28;1726;-71
2022/06/02 14:58:38;;;;;;;;;;;;;;;;;;5092419;28;856;-70
2022/06/02 15:01:13;;;;;;;;;;;;;;;;;;5092680;28;861;-63
2022/06/02 15:03:49;;;;;;;;;;;;;;;;;;5092675;28;883;-63
2022/06/02 15:06:14;;;;;;;;;;;;;;;;;;5091833;28;821;-63
2022/06/02 15:08:56;;;;;;;;;;;;;;;;;;5092517;28;908;-63
2022/06/02 15:11:40;;;;;;;;;;;;;;;;;;5091124;28;1947;-63
2022/06/02 15:14:11;;;;;;;;;;;;;;;;;;5091896;28;828;-63
2022/06/02 15:17:03;;;;;;;;;;;;;;;;;;5090609;28;1163;-63
2022/06/02 15:19:49;;;;;;;;;;;;;;;;;;5082635;28;1183;-62
2022/06/02 15:22:21;;;;;;;;;;;;;;;;;;5096090;28;1223;-63
2022/06/02 15:24:55;;;;;;;;;;;;;;;;;;5111677;28;1285;-63
2022/06/02 15:27:20;;;;;;;;;;;;;;;;;;5110117;28;1186;-63
2022/06/02 15:29:46;;;;;;;;;;;;;;;;;;5112382;28;832;-63
2022/06/02 15:32:17;;;;;;;;;;;;;;;;;;5111823;28;1961;-63
2022/06/02 15:34:54;;;;;;;;;;;;;;;;;;5111917;28;883;-62
2022/06/02 15:37:26;;;;;;;;;;;;;;;;;;5111533;28;975;-63
2022/06/02 15:40:10;;;;;;;;;;;;;;;;;;5112052;28;860;-63
2022/06/02 15:42:48;;;;;;;;;;;;;;;;;;5111808;28;832;-62
2022/06/02 15:45:13;;;;;;;;;;;;;;;;;;5111753;28;1159;-63
2022/06/02 15:47:42;;;;;;;;;;;;;;;;;;5111881;28;906;-63
2022/06/02 15:50:07;;;;;;;;;;;;;;;;;;5112011;28;1999;-62
2022/06/02 15:52:59;;;;;;;;;;;;;;;;;;5110096;28;1267;-62
2022/06/02 15:55:43;;;;;;;;;;;;;;;;;;5086392;28;1341;-63
2022/06/02 15:58:24;;;;;;;;;;;;;;;;;;5112349;28;551;-63
2022/06/02 16:00:55;;;;;;;;;;;;;;;;;;5111990;28;958;-62
2022/06/02 16:03:20;;;;;;;;;;;;;;;;;;5111534;28;859;-63
2022/06/02 16:06:04;;;;;;;;;;;;;;;;;;5111832;28;832;-62
2022/06/02 16:08:43;;;;;;;;;;;;;;;;;;5110609;28;1206;-63
2022/06/02 16:11:15;;;;;;;;;;;;;;;;;;5110892;28;1897;-63
2022/06/02 16:13:55;;;;;;;;;;;;;;;;;;5112611;28;835;-63
2022/06/02 16:16:35;;;;;;;;;;;;;;;;;;5111656;28;860;-62
2022/06/02 16:19:06;;;;;;;;;;;;;;;;;;5112186;28;923;-63
2022/06/02 16:21:50;;;;;;;;;;;;;;;;;;5112043;28;915;-63
2022/06/02 16:24:25;;;;;;;;;;;;;;;;;;5111238;28;860;-63
2022/06/02 16:26:50;;;;;;;;;;;;;;;;;;5112219;28;777;-63
2022/06/02 16:29:22;;;;;;;;;;;;;;;;;;5111383;28;880;-63
2022/06/02 16:31:59;;;;;;;;;;;;;;;;;;5111782;28;1917;-63
2022/06/02 16:34:43;;;;;;;;;;;;;;;;;;5115258;28;868;-63
2022/06/02 16:37:12;;;;;;;;;;;;;;;;;;5116136;28;998;-63
2022/06/02 16:39:56;;;;;;;;;;;;;;;;;;5115300;28;848;-64
2022/06/02 16:42:30;;;;;;;;;;;;;;;;;;5114132;28;986;-64
2022/06/02 16:44:59;;;;;;;;;;;;;;;;;;5115755;28;821;-64
2022/06/02 16:47:50;;;;;;;;;;;;;;;;;;5113539;28;1371;-64
2022/06/02 16:50:15;;;;;;;;;;;;;;;;;;5097744;28;1897;-64
2022/06/02 16:52:41;;;;;;;;;;;;;;;;;;5115407;28;891;-64
2022/06/02 16:55:16;;;;;;;;;;;;;;;;;;5113889;28;1175;-63
2022/06/02 16:57:47;;;;;;;;;;;;;;;;;;5115334;28;1272;-64
2022/06/02 17:00:21;;;;;;;;;;;;;;;;;;5115132;28;836;-64
2022/06/02 17:03:01;;;;;;;;;;;;;;;;;;5115415;28;860;-64
2022/06/02 17:05:37;;;;;;;;;;;;;;;;;;5114592;28;957;-64
2022/06/02 17:08:08;;;;;;;;;;;;;;;;;;5114650;28;1193;-64
2022/06/02 17:10:51;;;;;;;;;;;;;;;;;;5114457;28;1917;-63
2022/06/02 17:13:33;;;;;;;;;;;;;;;;;;5114451;28;915;-63
2022/06/02 17:16:01;;;;;;;;;;;;;;;;;;5114567;28;914;-63
2022/06/02 17:18:32;;;;;;;;;;;;;;;;;;5114088;28;844;-64
2022/06/02 17:21:15;;;;;;;;;;;;;;;;;;5114753;27;895;-63
2022/06/02 17:24:00;;;;;;;;;;;;;;;;;;5114555;28;1149;-64
2022/06/02 17:26:45;;;;;;;;;;;;;;;;;;5114486;28;824;-63
2022/06/02 17:29:46;;;;;;;;;;;;;;;;;;5114786;28;887;-63
2022/06/02 17:32:11;;;;;;;;;;;;;;;;;;5072097;28;1973;-63
2022/06/02 17:34:45;;;;;;;;;;;;;;;;;;5100758;28;1332;-63
2022/06/02 17:37:29;;;;;;;;;;;;;;;;;;5114986;28;902;-64
2022/06/02 17:40:03;;;;;;;;;;;;;;;;;;5114664;28;812;-64
2022/06/02 17:42:38;;;;;;;;;;;;;;;;;;5113612;28;995;-63
2022/06/02 17:45:15;;;;;;;;;;;;;;;;;;5114522;28;979;-64
2022/06/02 17:47:50;;;;;;;;;;;;;;;;;;5114533;28;1053;-63
2022/06/02 17:50:35;;;;;;;;;;;;;;;;;;5114145;27;1910;-64
2022/06/02 17:53:19;;;;;;;;;;;;;;;;;;5114579;28;997;-63
2022/06/02 17:55:53;;;;;;;;;;;;;;;;;;5114545;28;888;-63
2022/06/02 17:58:37;;;;;;;;;;;;;;;;;;5113848;28;852;-64
2022/06/02 18:01:18;;;;;;;;;;;;;;;;;;5114572;28;919;-63
2022/06/02 18:03:52;;;;;;;;;;;;;;;;;;5114110;27;864;-64
2022/06/02 18:06:25;;;;;;;;;;;;;;;;;;5112103;28;1320;-63
2022/06/02 18:08:57;;;;;;;;;;;;;;;;;;5113476;28;863;-63
2022/06/02 18:11:30;;;;;;;;;;;;;;;;;;5113077;28;1910;-64
2022/06/02 18:14:13;;;;;;;;;;;;;;;;;;5113822;28;856;-63
2022/06/02 18:16:39;;;;;;;;;;;;;;;;;;5113412;28;1010;-62
2022/06/02 18:19:10;;;;;;;;;;;;;;;;;;5113627;28;785;-62
2022/06/02 18:21:45;;;;;;;;;;;;;;;;;;5114029;28;782;-62
2022/06/02 18:24:29;;;;;;;;;;;;;;;;;;5113053;28;1293;-62
2022/06/02 18:26:57;;;;;;;;;;;;;;;;;;5113936;28;986;-63
2022/06/02 18:29:32;;;;;;;;;;;;;;;;;;5111768;28;1507;-63